NEW MELONES RESERVOIR (NML)

Elevation: 1135' · STANISLAUS R basin · Operator: US Bureau of Reclamation

Provisional data, subject to change.
Query executed Wednesday at 23:05:54   clock

Select a sensor type for a plot of data.
Note: Reservoir Flows are daily averages.

Earlier

Date RES ELE    STORAGE    RES CHG    TOC STO    ABV TOC    OUTFLOW    INFLOW    EVAP    FNF    RIV REL    PPT INC    SPILL    DIS PWR   
 FEET   AF   AF   AF   AF   CFS   CFS   CFS   CFS   CFS   INCHES   CFS   CFS  
03/02/2015 879.14 606918 685 1970000 -1363082 69 433 19 577 0 0.00 0 69
03/03/2015 879.20 607235 317 1970000 -1362765 62 234 12 365 0 0.00 0 62
03/04/2015 879.15 606971 -264 1970000 -1363029 472 359 20 482 0 0.00 0 472
03/05/2015 878.88 605550 -1421 1970000 -1364450 956 257 17 386 0 0.00 0 956
03/06/2015 878.74 604816 -734 1970000 -1365184 711 365 24 492 0 0.00 0 711
03/07/2015 878.53 603714 -1102 1970000 -1366286 851 315 20 455 0 0.00 0 851
03/08/2015 878.41 603084 -630 1970000 -1366916 627 340 31 470 0 0.00 0 627
03/09/2015 878.33 602665 -419 1970000 -1367335 496 310 25 448 0 0.00 0 496
03/10/2015 878.24 602192 -473 1970000 -1367808 618 411 31 545 0 0.00 0 618
03/11/2015 878.17 601825 -367 1970000 -1368175 553 385 17 527 0 0.03 0 553
03/12/2015 878.00 600933 -892 1970000 -1369067 743 303 10 470 0 0.15 0 743
03/13/2015 877.90 600411 -522 1970000 -1369589 657 419 25 529 0 0.00 0 657
03/14/2015 877.77 599733 -678 1970000 -1370267 623 303 22 451 0 0.00 0 623
03/15/2015 877.71 599420 -313 1970000 -1370580 345 226 39 405 0 0.00 0 345
03/16/2015 877.33 597437 -1983 1970000 -1372563 1306 336 30 548 0 0.00 0 1306
03/17/2015 877.19 596706 -731 1970000 -1373294 569 225 25 433 0 0.00 0 569
03/18/2015 876.67 594002 -2704 1970000 -1375998 1585 251 29 451 0 0.00 0 1585
03/19/2015 876.16 591355 -2647 1970000 -1378645 1581 271 25 460 0 0.00 0 1581
03/20/2015 875.73 589131 -2224 1970000 -1380869 1350 261 32 452 0 0.00 0 1350
03/21/2015 875.25 586654 -2477 1976250 -1389596 1538 316 27 505 0 0.00 0 1538
03/22/2015 874.91 584901 -1753 1982500 -1397599 1082 230 32 410 0 0.00 0 1082
03/23/2015 874.44 582488 -2413 1988750 -1406262 1512 320 25 519 0 0.00 0 1512
03/24/2015 873.71 578748 -3740 1995000 -1416252 2113 253 26 430 0 0.00 0 2113
03/25/2015 872.84 574310 -4438 2001250 -1426940 2558 347 26 497 0 0.00 0 2558
03/26/2015 871.88 569438 -4872 2007500 -1438062 2700 267 23 423 0 0.00 0 2700
03/27/2015 871.22 566105 -3333 2013750 -1447645 1921 282 41 451 0 0.00 0 1921
03/28/2015 870.29 561428 -4677 -- -- 2584 263 37 454 0 0.00 0 2584
03/29/2015 869.63 558123 -3305 -- -- 1889 259 36 459 0 0.00 0 1889
03/30/2015 869.08 555376 -2747 -- -- 1629 281 37 515 0 0.00 0 1629
03/31/2015 868.70 553486 -1890 -- -- 1107 196 42 434 0 0.00 0 1107
04/01/2015 -- -- -- -- -- -- -- -- -- -- -- -- --

Later | Latest

Warning! This data is preliminary and subject to revision.

Show NML Map | Plot NML Data | 1 Month NML Data | Real-Time NML Data | NML Info